createdAt,value
2023-04-19T00:01:57.772Z,21.00
2023-04-19T00:04:24.837Z,22.00
2023-04-19T00:06:51.790Z,22.00
2023-04-19T00:09:18.902Z,21.00
2023-04-19T00:11:45.728Z,22.75
2023-04-19T00:14:12.751Z,24.00
2023-04-19T00:16:39.815Z,20.00
2023-04-19T00:19:06.647Z,19.00
2023-04-19T00:21:33.554Z,18.50
2023-04-19T00:24:02.707Z,20.50
2023-04-19T00:26:29.537Z,21.25
2023-04-19T00:28:57.182Z,23.00
2023-04-19T00:31:24.152Z,23.00
2023-04-19T00:33:51.135Z,22.00
2023-04-19T00:36:18.355Z,23.00
2023-04-19T00:38:47.096Z,21.00
2023-04-19T00:41:14.045Z,23.00
2023-04-19T00:43:40.995Z,22.00
2023-04-19T00:46:07.984Z,22.50
2023-04-19T00:48:35.574Z,22.00
2023-04-19T00:51:02.767Z,23.00
2023-04-19T00:53:30.074Z,23.00
2023-04-19T00:56:00.122Z,23.00
2023-04-19T00:58:28.301Z,22.50
2023-04-19T01:00:55.268Z,23.00
2023-04-19T01:03:22.307Z,21.00
2023-04-19T01:05:51.311Z,22.75
2023-04-19T01:08:18.155Z,23.00
2023-04-19T01:10:45.515Z,21.50
2023-04-19T01:13:12.529Z,23.25
2023-04-19T01:15:39.413Z,23.00
2023-04-19T01:18:06.337Z,22.50
2023-04-19T01:20:33.303Z,22.00
2023-04-19T01:23:00.149Z,19.25
2023-04-19T01:25:27.564Z,22.00
2023-04-19T01:27:54.467Z,21.00
2023-04-19T01:30:24.013Z,22.00
2023-04-19T01:32:50.964Z,22.00
2023-04-19T01:35:18.009Z,23.75
2023-04-19T01:37:44.903Z,20.50
2023-04-19T01:40:12.302Z,21.50
2023-04-19T01:42:39.281Z,23.00
2023-04-19T01:45:07.004Z,21.50
2023-04-19T01:47:33.991Z,21.00
2023-04-19T01:50:02.520Z,21.00
2023-04-19T01:52:29.389Z,21.25
2023-04-19T01:54:56.205Z,21.25
2023-04-19T01:57:23.160Z,23.00
2023-04-19T01:59:50.042Z,22.00
2023-04-19T02:02:17.087Z,22.00
2023-04-19T02:04:44.054Z,20.50
2023-04-19T02:07:10.977Z,21.00
2023-04-19T02:09:38.810Z,22.00
2023-04-19T02:12:06.322Z,22.00
2023-04-19T02:14:33.326Z,21.00
2023-04-19T02:17:00.381Z,21.50
2023-04-19T02:19:27.399Z,21.00
2023-04-19T02:21:54.255Z,19.00
2023-04-19T02:24:21.215Z,20.00
2023-04-19T02:26:48.100Z,19.75
2023-04-19T02:29:15.150Z,21.00
2023-04-19T02:31:42.060Z,21.75
2023-04-19T02:34:09.532Z,19.00
2023-04-19T02:36:36.429Z,17.75
2023-04-19T02:39:03.340Z,17.00
2023-04-19T02:41:30.260Z,20.75
2023-04-19T02:43:57.156Z,20.00
2023-04-19T02:46:24.200Z,20.00
2023-04-19T02:48:51.385Z,21.50
2023-04-19T02:51:18.388Z,21.00
2023-04-19T02:53:45.286Z,22.00
2023-04-19T02:56:12.234Z,21.00
2023-04-19T02:58:39.062Z,22.75
2023-04-19T03:01:06.885Z,22.00
2023-04-19T03:03:33.972Z,23.00
2023-04-19T03:06:01.401Z,19.00
2023-04-19T03:08:29.449Z,20.00
2023-04-19T03:10:56.351Z,22.00
2023-04-19T03:13:23.219Z,21.00
2023-04-19T03:15:50.902Z,18.75
2023-04-19T03:18:21.886Z,20.00
2023-04-19T03:20:48.957Z,23.00
2023-04-19T03:23:16.156Z,23.00
2023-04-19T03:25:43.253Z,23.00
2023-04-19T03:28:23.836Z,23.00
2023-04-19T03:31:11.118Z,23.50
2023-04-19T03:33:39.218Z,24.00
2023-04-19T03:36:06.583Z,24.00
2023-04-19T03:38:33.980Z,23.00
2023-04-19T03:41:02.132Z,22.50
2023-04-19T03:43:34.198Z,24.00
2023-04-19T03:46:01.170Z,24.00
2023-04-19T03:48:28.622Z,24.00
2023-04-19T03:50:56.715Z,22.25
2023-04-19T03:53:24.116Z,22.75
2023-04-19T03:55:51.056Z,25.00
2023-04-19T03:58:17.916Z,25.00
2023-04-19T04:00:59.334Z,25.00
2023-04-19T04:03:26.668Z,25.00
2023-04-19T04:05:54.015Z,26.00
2023-04-19T04:08:20.965Z,26.00
2023-04-19T04:10:47.949Z,27.00
2023-04-19T04:13:15.382Z,26.00
2023-04-19T04:15:49.920Z,28.25
2023-04-19T04:18:17.630Z,29.00
2023-04-19T04:20:45.337Z,29.00
2023-04-19T04:23:12.659Z,26.50
2023-04-19T04:25:44.224Z,28.00
2023-04-19T04:28:13.551Z,27.00
2023-04-19T04:30:41.886Z,28.50
2023-04-19T04:33:10.956Z,27.00
2023-04-19T04:35:39.208Z,27.00
2023-04-19T04:38:23.712Z,27.75
2023-04-19T04:40:58.114Z,30.00
2023-04-19T04:43:26.304Z,29.00
2023-04-19T04:45:54.756Z,28.00
2023-04-19T04:48:21.951Z,27.00
2023-04-19T04:50:48.844Z,27.25
2023-04-19T04:53:16.003Z,27.00
2023-04-19T04:55:45.552Z,27.00
2023-04-19T04:58:13.848Z,27.00
2023-04-19T05:00:55.636Z,27.00
2023-04-19T05:03:23.998Z,26.50
2023-04-19T05:05:56.654Z,27.00
2023-04-19T05:08:26.595Z,28.25
2023-04-19T05:10:57.692Z,27.50
2023-04-19T05:13:27.825Z,28.00
2023-04-19T05:15:55.272Z,27.50
2023-04-19T05:18:22.219Z,26.50
2023-04-19T05:20:52.989Z,25.50
2023-04-19T05:23:25.744Z,27.00
2023-04-19T05:25:53.102Z,28.00
2023-04-19T05:28:25.095Z,30.00
2023-04-19T05:31:18.152Z,29.00
2023-04-19T05:33:56.328Z,27.00
2023-04-19T05:36:25.078Z,26.50
2023-04-19T05:38:52.700Z,28.00
2023-04-19T05:41:20.620Z,27.50
2023-04-19T05:43:47.950Z,26.50
2023-04-19T05:46:18.632Z,27.00
2023-04-19T05:48:47.632Z,26.00
2023-04-19T05:51:33.093Z,26.00
2023-04-19T05:54:14.327Z,25.50
2023-04-19T05:56:44.608Z,27.75
2023-04-19T05:59:20.979Z,29.00
2023-04-19T06:01:48.033Z,28.00
2023-04-19T06:04:15.537Z,27.00
2023-04-19T06:06:43.429Z,26.75
2023-04-19T06:09:18.312Z,26.50
2023-04-19T06:11:50.867Z,26.00
2023-04-19T06:14:18.858Z,27.00
2023-04-19T06:16:46.868Z,26.00
2023-04-19T06:19:13.904Z,26.00
2023-04-19T06:21:41.678Z,26.00
2023-04-19T06:24:09.293Z,25.00
2023-04-19T06:26:36.252Z,25.50
2023-04-19T06:29:04.977Z,26.00
2023-04-19T06:31:32.856Z,25.50
2023-04-19T06:33:59.762Z,26.50
2023-04-19T06:36:26.836Z,25.50
2023-04-19T06:38:53.828Z,25.50
2023-04-19T06:41:20.677Z,26.75
2023-04-19T06:43:47.634Z,27.00
2023-04-19T06:46:15.795Z,26.00
2023-04-19T06:48:44.647Z,25.00
2023-04-19T06:51:11.543Z,25.00
2023-04-19T06:53:40.488Z,25.00
2023-04-19T06:56:11.025Z,25.00
2023-04-19T06:58:39.526Z,26.75
2023-04-19T07:01:06.422Z,25.00
2023-04-19T07:03:33.882Z,25.00
2023-04-19T07:06:00.965Z,25.00
2023-04-19T07:08:42.440Z,23.00
2023-04-19T07:11:16.155Z,24.50
2023-04-19T07:13:43.048Z,25.00
2023-04-19T07:16:10.050Z,26.00
2023-04-19T07:18:37.613Z,26.00
2023-04-19T07:21:04.521Z,25.00
2023-04-19T07:23:33.255Z,25.00
2023-04-19T07:26:00.181Z,26.00
2023-04-19T07:28:31.607Z,25.00
2023-04-19T07:31:00.925Z,25.00
2023-04-19T07:33:28.843Z,25.00
2023-04-19T07:35:56.034Z,24.00
2023-04-19T07:38:23.198Z,24.50
2023-04-19T07:40:50.200Z,25.75
2023-04-19T07:43:17.064Z,26.00
2023-04-19T07:45:44.096Z,26.75
2023-04-19T07:48:11.002Z,27.00
2023-04-19T07:50:37.958Z,26.00
2023-04-19T07:53:04.811Z,24.50
2023-04-19T07:55:31.851Z,26.00
2023-04-19T07:57:58.713Z,25.50
2023-04-19T08:00:25.825Z,26.00
2023-04-19T08:02:53.062Z,26.00
2023-04-19T08:05:20.408Z,25.75
2023-04-19T08:07:47.410Z,26.00
2023-04-19T08:10:15.032Z,25.50
2023-04-19T08:12:50.708Z,26.00
2023-04-19T08:16:13.077Z,25.50
2023-04-19T08:18:16.110Z,26.00
2023-04-19T08:20:43.031Z,27.00
2023-04-19T08:23:18.542Z,26.00
2023-04-19T08:25:48.378Z,25.00
2023-04-19T08:28:15.165Z,25.00
2023-04-19T08:30:42.054Z,24.00
2023-04-19T08:33:09.281Z,25.00
2023-04-19T08:35:37.779Z,25.75
2023-04-19T08:38:04.724Z,26.00
2023-04-19T08:40:31.894Z,25.25
2023-04-19T08:42:59.141Z,26.00
2023-04-19T08:45:28.779Z,25.50
2023-04-19T08:48:01.175Z,24.50
2023-04-19T08:50:34.682Z,25.50
2023-04-19T08:53:24.123Z,26.00
2023-04-19T08:58:33.385Z,25.50
2023-04-19T09:01:12.800Z,25.00
2023-04-19T09:03:56.082Z,25.00
2023-04-19T09:06:35.354Z,25.75
2023-04-19T09:11:51.725Z,26.75
2023-04-19T09:14:19.804Z,25.50
2023-04-19T09:16:46.766Z,25.50
2023-04-19T09:19:23.368Z,27.00
2023-04-19T09:21:52.050Z,27.50
2023-04-19T09:24:18.981Z,26.50
2023-04-19T09:26:55.474Z,27.00
2023-04-19T09:29:22.564Z,26.00
2023-04-19T09:31:59.492Z,26.00
2023-04-19T09:34:26.768Z,27.00
2023-04-19T09:37:08.515Z,25.50
2023-04-19T09:39:40.380Z,26.00
2023-04-19T09:42:07.245Z,26.00
2023-04-19T09:45:12.634Z,24.50
2023-04-19T09:47:30.377Z,26.00
2023-04-19T09:52:40.320Z,26.00
2023-04-19T09:55:22.225Z,26.50
2023-04-19T09:57:53.489Z,25.00
2023-04-19T10:00:20.969Z,26.00
2023-04-19T10:02:52.244Z,25.50
2023-04-19T10:05:21.833Z,25.50
2023-04-19T10:07:50.054Z,26.00
2023-04-19T10:10:20.897Z,26.00
2023-04-19T10:13:11.627Z,26.00
2023-04-19T10:15:50.085Z,25.50
2023-04-19T10:18:18.715Z,26.00
2023-04-19T10:21:06.247Z,25.00
2023-04-19T10:23:34.277Z,26.25
2023-04-19T10:26:01.131Z,26.00
2023-04-19T10:28:31.242Z,24.50
2023-04-19T10:31:03.606Z,25.25
2023-04-19T10:33:40.640Z,26.00
2023-04-19T10:36:14.182Z,25.50
2023-04-19T10:38:48.348Z,26.50
2023-04-19T10:41:18.531Z,26.00
2023-04-19T10:44:09.930Z,26.00
2023-04-19T10:46:38.909Z,26.00
2023-04-19T10:49:06.568Z,26.50
2023-04-19T10:51:38.631Z,26.00
2023-04-19T10:54:33.592Z,26.00
2023-04-19T10:57:08.560Z,26.00
2023-04-19T10:59:39.386Z,26.50
2023-04-19T11:02:28.813Z,26.00
2023-04-19T11:04:55.984Z,25.50
2023-04-19T11:07:25.612Z,27.00
2023-04-19T11:09:52.701Z,27.00
2023-04-19T11:12:21.608Z,26.00
2023-04-19T11:14:52.232Z,26.00
2023-04-19T11:17:27.011Z,26.00
2023-04-19T11:20:06.434Z,26.00
2023-04-19T11:22:40.578Z,25.50
2023-04-19T11:25:14.380Z,27.00
2023-04-19T11:27:42.823Z,26.00
2023-04-19T11:30:14.317Z,27.00
2023-04-19T11:32:54.963Z,26.50
2023-04-19T11:35:24.316Z,26.25
2023-04-19T11:37:51.769Z,26.50
2023-04-19T11:40:20.911Z,27.00
2023-04-19T11:42:54.525Z,26.00
2023-04-19T11:45:39.677Z,26.75
2023-04-19T11:48:13.394Z,26.50
2023-04-19T11:50:45.137Z,26.75
2023-04-19T11:53:21.162Z,26.50
2023-04-19T11:55:53.204Z,25.50
2023-04-19T11:58:32.046Z,27.00
2023-04-19T12:01:10.230Z,28.00
2023-04-19T12:03:48.517Z,27.00
2023-04-19T12:06:32.595Z,27.00
2023-04-19T12:08:59.812Z,27.00
2023-04-19T12:11:47.789Z,27.00
2023-04-19T12:14:17.815Z,27.00
2023-04-19T12:16:45.292Z,27.00
2023-04-19T12:19:19.403Z,27.00
2023-04-19T12:21:47.552Z,26.00
2023-04-19T12:24:17.267Z,26.00
2023-04-19T12:26:56.154Z,26.00
2023-04-19T12:29:23.831Z,26.00
2023-04-19T12:31:50.813Z,26.00
2023-04-19T12:34:17.961Z,27.00
2023-04-19T12:36:44.909Z,27.00
2023-04-19T12:39:11.922Z,27.00
2023-04-19T12:41:38.828Z,25.00
2023-04-19T12:44:05.820Z,25.50
2023-04-19T12:46:32.726Z,24.75
2023-04-19T12:48:59.892Z,26.25
2023-04-19T12:51:26.820Z,26.00
2023-04-19T12:53:54.538Z,24.50
2023-04-19T12:56:21.525Z,26.00
2023-04-19T12:58:48.427Z,25.00
2023-04-19T13:01:15.436Z,26.00
2023-04-19T13:03:42.922Z,25.00
2023-04-19T13:06:09.965Z,26.25
2023-04-19T13:08:44.898Z,27.00
2023-04-19T13:11:17.489Z,26.00
2023-04-19T13:13:44.348Z,26.00
2023-04-19T13:16:11.585Z,27.00
2023-04-19T13:18:38.611Z,25.00
2023-04-19T13:21:08.031Z,25.00
2023-04-19T13:23:38.001Z,25.00
2023-04-19T13:26:05.044Z,25.00
2023-04-19T13:28:31.936Z,26.00
2023-04-19T13:30:58.997Z,25.00
2023-04-19T13:33:26.015Z,25.00
2023-04-19T13:35:52.853Z,25.00
2023-04-19T13:38:19.758Z,26.00
2023-04-19T13:40:46.642Z,25.00
2023-04-19T13:43:13.713Z,26.00
2023-04-19T13:45:40.625Z,25.50
2023-04-19T13:48:07.573Z,25.25
2023-04-19T13:50:34.709Z,26.00
2023-04-19T13:53:20.122Z,25.50
2023-04-19T13:55:47.056Z,25.00
2023-04-19T13:58:14.085Z,26.00
2023-04-19T14:00:40.995Z,25.00
2023-04-19T14:03:08.315Z,25.00
2023-04-19T14:05:36.016Z,25.00
2023-04-19T14:08:39.816Z,25.75
2023-04-19T14:11:25.478Z,26.00
2023-04-19T14:13:53.260Z,25.50
2023-04-19T14:16:21.212Z,26.00
2023-04-19T14:18:48.523Z,27.00
2023-04-19T14:21:15.562Z,26.00
2023-04-19T14:23:42.436Z,24.00
2023-04-19T14:26:09.254Z,25.50
2023-04-19T14:28:36.292Z,26.00
2023-04-19T14:31:03.076Z,25.00
2023-04-19T14:33:30.127Z,26.00
2023-04-19T14:35:59.412Z,25.00
2023-04-19T14:38:26.432Z,24.00
2023-04-19T14:40:53.321Z,25.00
2023-04-19T14:43:20.342Z,25.00
2023-04-19T14:45:49.438Z,24.50
2023-04-19T14:48:16.508Z,24.00
2023-04-19T14:51:02.276Z,25.00
2023-04-19T14:53:29.212Z,24.75
2023-04-19T14:55:56.095Z,26.25
2023-04-19T14:58:23.149Z,26.25
2023-04-19T15:00:50.053Z,25.00
2023-04-19T15:03:17.838Z,25.00
2023-04-19T15:05:45.119Z,25.00
2023-04-19T15:08:26.963Z,25.00
2023-04-19T15:10:57.401Z,25.00
2023-04-19T15:13:24.429Z,24.50
2023-04-19T15:15:51.683Z,25.00
2023-04-19T15:18:18.646Z,25.00
2023-04-19T15:20:46.679Z,24.50
2023-04-19T15:23:13.567Z,25.00
2023-04-19T15:25:40.542Z,24.50
2023-04-19T15:28:07.422Z,25.25
2023-04-19T15:30:36.530Z,25.50
2023-04-19T15:33:04.002Z,26.00
2023-04-19T15:35:30.979Z,25.50
2023-04-19T15:38:00.845Z,26.00
2023-04-19T15:40:46.302Z,25.00
2023-04-19T15:43:13.206Z,25.00
2023-04-19T15:45:40.231Z,25.25
2023-04-19T15:48:08.121Z,26.50
2023-04-19T15:50:37.786Z,25.50
2023-04-19T15:53:05.506Z,26.00
2023-04-19T15:55:33.334Z,26.00
2023-04-19T15:58:04.171Z,27.00
2023-04-19T16:00:31.234Z,26.25
2023-04-19T16:02:58.685Z,27.00
2023-04-19T16:05:25.900Z,25.00
2023-04-19T16:08:07.508Z,27.25
2023-04-19T16:10:35.382Z,26.50
2023-04-19T16:13:04.127Z,25.50
2023-04-19T16:15:31.183Z,26.00
2023-04-19T16:17:58.287Z,26.00
2023-04-19T16:20:25.489Z,26.00
2023-04-19T16:23:10.868Z,26.50
2023-04-19T16:25:37.835Z,26.50
2023-04-19T16:28:04.686Z,25.00
2023-04-19T16:30:31.795Z,26.50
2023-04-19T16:32:59.014Z,26.75
2023-04-19T16:35:26.712Z,27.00
2023-04-19T16:37:56.734Z,28.50
2023-04-19T16:40:24.498Z,29.75
2023-04-19T16:42:51.500Z,31.00
2023-04-19T16:45:18.596Z,28.00
2023-04-19T16:48:04.074Z,28.50
2023-04-19T16:50:31.342Z,25.00
2023-04-19T16:52:58.198Z,26.00
2023-04-19T16:55:25.181Z,25.00
2023-04-19T16:57:52.087Z,27.00
2023-04-19T17:00:19.395Z,26.00
2023-04-19T17:02:46.358Z,26.00
2023-04-19T17:05:14.177Z,26.00
2023-04-19T17:07:41.082Z,24.00
2023-04-19T17:10:08.729Z,25.00
2023-04-19T17:12:35.766Z,23.50
2023-04-19T17:15:02.707Z,26.00
2023-04-19T17:17:29.627Z,26.00
2023-04-19T17:19:56.990Z,26.00
2023-04-19T17:22:24.031Z,25.00
2023-04-19T17:24:50.969Z,25.50
2023-04-19T17:27:17.838Z,26.00
2023-04-19T17:29:44.863Z,24.50
2023-04-19T17:32:11.784Z,23.50
2023-04-19T17:34:38.763Z,24.50
2023-04-19T17:37:05.644Z,26.00
2023-04-19T17:39:32.617Z,25.00
2023-04-19T17:41:59.542Z,25.00
2023-04-19T17:44:26.434Z,24.50
2023-04-19T17:46:53.369Z,25.00
2023-04-19T17:49:20.380Z,25.50
2023-04-19T17:51:47.495Z,25.00
2023-04-19T17:54:15.548Z,24.50
2023-04-19T17:56:42.572Z,24.50
2023-04-19T17:59:09.505Z,24.50
2023-04-19T18:01:36.453Z,24.50
2023-04-19T18:04:22.007Z,25.25
2023-04-19T18:06:49.383Z,25.00
2023-04-19T18:09:19.511Z,24.00
2023-04-19T18:11:46.510Z,24.50
2023-04-19T18:14:13.473Z,25.00
2023-04-19T18:16:40.529Z,24.50
2023-04-19T18:19:07.456Z,23.50
2023-04-19T18:21:34.425Z,25.00
2023-04-19T18:24:01.315Z,25.00
2023-04-19T18:26:41.607Z,24.50
2023-04-19T18:29:09.419Z,25.00
2023-04-19T18:31:36.385Z,25.00
2023-04-19T18:34:03.841Z,24.00
2023-04-19T18:36:49.178Z,25.00
2023-04-19T18:39:16.385Z,25.00
2023-04-19T18:42:02.100Z,23.00
2023-04-19T18:44:49.399Z,23.50
2023-04-19T18:47:16.177Z,23.00
2023-04-19T18:49:51.612Z,24.00
2023-04-19T18:52:26.668Z,24.50
2023-04-19T18:54:53.910Z,25.00
2023-04-19T18:57:27.090Z,25.25
2023-04-19T18:59:56.811Z,25.00
2023-04-19T19:02:23.950Z,24.00
2023-04-19T19:04:57.972Z,25.00
2023-04-19T19:10:03.623Z,24.00
2023-04-19T19:12:37.252Z,24.00
2023-04-19T19:15:04.488Z,23.50
2023-04-19T19:17:32.068Z,23.50
2023-04-19T19:19:59.005Z,23.00
2023-04-19T19:22:28.799Z,24.00
2023-04-19T19:24:58.397Z,24.00
2023-04-19T19:27:27.542Z,24.00
2023-04-19T19:29:59.748Z,25.00
2023-04-19T19:32:31.216Z,25.00
2023-04-19T19:35:02.250Z,25.00
2023-04-19T19:37:36.244Z,23.50
2023-04-19T19:40:06.057Z,23.50
2023-04-19T19:42:34.731Z,23.25
2023-04-19T19:45:02.414Z,24.50
2023-04-19T19:47:29.328Z,25.00
2023-04-19T19:52:28.175Z,24.00
2023-04-19T19:54:55.214Z,24.00
2023-04-19T19:58:14.111Z,24.00
2023-04-19T20:00:31.800Z,23.00
2023-04-19T20:02:57.276Z,23.50
2023-04-19T20:05:26.328Z,24.00
2023-04-19T20:08:08.577Z,24.50
2023-04-19T20:10:37.502Z,25.00
2023-04-19T20:13:04.481Z,23.00
2023-04-19T20:15:31.617Z,24.00
2023-04-19T20:17:58.754Z,23.50
2023-04-19T20:20:25.853Z,24.00
2023-04-19T20:23:11.466Z,24.00
2023-04-19T20:25:38.644Z,24.00
2023-04-19T20:28:05.607Z,24.00
2023-04-19T20:30:32.499Z,23.50
2023-04-19T20:32:59.487Z,24.50
2023-04-19T20:35:26.643Z,25.00
2023-04-19T20:37:53.472Z,23.00
2023-04-19T20:40:20.746Z,24.00
2023-04-19T20:42:47.641Z,25.00
2023-04-19T20:45:14.701Z,23.50
2023-04-19T20:47:41.654Z,24.50
2023-04-19T20:50:09.120Z,24.00
2023-04-19T20:52:36.052Z,25.00
2023-04-19T20:55:03.376Z,24.00
2023-04-19T20:57:30.366Z,25.00
2023-04-19T20:59:59.655Z,24.50
2023-04-19T21:02:26.705Z,24.50
2023-04-19T21:04:53.794Z,23.00
2023-04-19T21:07:20.671Z,24.00
2023-04-19T21:09:47.550Z,24.50
2023-04-19T21:12:14.512Z,25.00
2023-04-19T21:14:41.463Z,24.00
2023-04-19T21:17:08.380Z,24.00
2023-04-19T21:19:35.307Z,24.00
2023-04-19T21:22:02.105Z,24.00
2023-04-19T21:24:29.033Z,23.00
2023-04-19T21:26:55.881Z,23.00
2023-04-19T21:29:22.865Z,23.50
2023-04-19T21:31:49.810Z,24.00
2023-04-19T21:34:16.739Z,23.00
2023-04-19T21:36:43.619Z,23.50
2023-04-19T21:39:10.525Z,24.00
2023-04-19T21:41:37.725Z,24.00
2023-04-19T21:44:04.755Z,24.00
2023-04-19T21:46:31.661Z,20.50
2023-04-19T21:48:58.569Z,21.50
2023-04-19T21:51:25.455Z,22.00
2023-04-19T21:53:52.306Z,23.00
2023-04-19T21:56:19.232Z,23.00
2023-04-19T21:58:46.049Z,23.00
2023-04-19T22:01:13.120Z,24.00
2023-04-19T22:03:40.259Z,24.00
2023-04-19T22:06:07.487Z,23.00
2023-04-19T22:08:34.510Z,24.00
2023-04-19T22:11:01.389Z,23.00
2023-04-19T22:13:28.232Z,24.00
2023-04-19T22:15:55.135Z,24.00
2023-04-19T22:18:22.037Z,23.50
2023-04-19T22:20:48.877Z,24.00
2023-04-19T22:23:15.696Z,24.00
2023-04-19T22:25:42.598Z,24.00
2023-04-19T22:28:09.435Z,24.00
2023-04-19T22:30:36.399Z,22.00
2023-04-19T22:33:03.537Z,24.00
2023-04-19T22:35:30.476Z,24.00
2023-04-19T22:37:57.378Z,24.00
2023-04-19T22:40:24.324Z,24.00
2023-04-19T22:42:51.142Z,21.50
2023-04-19T22:45:18.111Z,22.00
2023-04-19T22:47:45.074Z,23.00
2023-04-19T22:50:11.994Z,22.50
2023-04-19T22:52:38.894Z,24.00
2023-04-19T22:55:06.145Z,21.50
2023-04-19T22:57:32.970Z,22.00
2023-04-19T22:59:59.807Z,23.00
2023-04-19T23:02:26.806Z,24.00
2023-04-19T23:04:53.875Z,23.00
2023-04-19T23:07:20.860Z,23.00
2023-04-19T23:09:47.830Z,20.00
2023-04-19T23:12:14.731Z,22.50
2023-04-19T23:14:42.085Z,22.50
2023-04-19T23:17:09.014Z,22.25
2023-04-19T23:19:36.231Z,20.00
2023-04-19T23:22:03.086Z,23.00
2023-04-19T23:24:29.944Z,23.75
2023-04-19T23:26:56.756Z,27.00
2023-04-19T23:29:23.624Z,21.75
2023-04-19T23:31:50.590Z,22.00
2023-04-19T23:34:17.487Z,23.00
2023-04-19T23:36:44.630Z,23.00
2023-04-19T23:39:11.502Z,23.00
2023-04-19T23:41:38.331Z,22.00
2023-04-19T23:44:05.359Z,24.25
2023-04-19T23:46:32.303Z,22.50
2023-04-19T23:48:59.147Z,21.00
2023-04-19T23:51:26.041Z,20.00
2023-04-19T23:53:52.965Z,22.75
2023-04-19T23:56:19.971Z,24.00
2023-04-19T23:58:46.767Z,20.50
